Time;durP1;ratioP1;P1;durP2;ratioP2;P2;SDS_P1;SDS_P2;PMS_P1;PMS_P2;Temp;Humidity;BMP_temperature;BMP_pressure;BME280_temperature;BME280_humidity;BME280_pressure;Samples;Min_cycle;Max_cycle;Signal;HPM_P1;HPM_P2
2023/06/13 00:00:44;;;;;;;8.18;3.30;;;;;;;;;;5029235;28;20109;-58
2023/06/13 00:03:13;;;;;;;7.30;3.10;;;;;;;;;;5028550;28;20071;-60
2023/06/13 00:05:38;;;;;;;5.50;3.08;;;;;;;;;;5021763;28;20493;-60
2023/06/13 00:08:03;;;;;;;6.22;3.30;;;;;;;;;;5024733;28;20017;-61
2023/06/13 00:10:28;;;;;;;6.43;2.97;;;;;;;;;;5028722;28;20220;-60
2023/06/13 00:12:53;;;;;;;5.77;3.33;;;;;;;;;;5025554;28;20444;-60
2023/06/13 00:15:19;;;;;;;6.93;2.97;;;;;;;;;;5024947;28;20070;-61
2023/06/13 00:17:45;;;;;;;8.07;3.13;;;;;;;;;;5021719;28;20026;-60
2023/06/13 00:20:11;;;;;;;8.55;3.10;;;;;;;;;;5018096;28;20022;-61
2023/06/13 00:22:36;;;;;;;6.00;3.10;;;;;;;;;;5029582;28;20075;-61
2023/06/13 00:25:02;;;;;;;5.45;2.90;;;;;;;;;;5024315;28;20034;-61
2023/06/13 00:27:27;;;;;;;6.18;3.05;;;;;;;;;;5020134;28;20505;-61
2023/06/13 00:29:52;;;;;;;5.83;2.97;;;;;;;;;;5037373;28;20480;-58
2023/06/13 00:32:17;;;;;;;6.28;3.03;;;;;;;;;;5032680;28;20370;-59
2023/06/13 00:34:43;;;;;;;6.32;3.38;;;;;;;;;;5026740;28;20029;-59
2023/06/13 00:37:09;;;;;;;6.78;3.92;;;;;;;;;;5018800;28;20075;-59
2023/06/13 00:39:35;;;;;;;8.90;3.55;;;;;;;;;;5028821;28;20043;-59
2023/06/13 00:42:01;;;;;;;6.55;3.72;;;;;;;;;;5023873;28;20108;-59
2023/06/13 00:44:26;;;;;;;7.88;4.03;;;;;;;;;;5015449;28;20065;-59
2023/06/13 00:46:52;;;;;;;7.35;3.65;;;;;;;;;;5029687;28;20493;-59
2023/06/13 00:49:17;;;;;;;7.85;3.92;;;;;;;;;;5023060;28;20033;-59
2023/06/13 00:51:44;;;;;;;7.90;3.70;;;;;;;;;;5029704;28;20028;-58
2023/06/13 00:54:10;;;;;;;6.47;3.30;;;;;;;;;;5033325;28;20064;-60
2023/06/13 00:56:36;;;;;;;6.22;3.50;;;;;;;;;;5028712;28;20022;-59
2023/06/13 00:59:03;;;;;;;6.75;3.58;;;;;;;;;;5029169;28;20101;-60
2023/06/13 01:01:28;;;;;;;6.65;3.40;;;;;;;;;;5031347;28;20025;-60
2023/06/13 01:03:55;;;;;;;7.03;3.60;;;;;;;;;;5024781;28;20029;-60
2023/06/13 02:10:55;;;;;;;6.05;3.38;;;;;;;;;;5019008;28;20036;-58
2023/06/13 02:13:20;;;;;;;8.40;3.22;;;;;;;;;;5011837;28;20033;-58
2023/06/13 02:15:45;;;;;;;7.72;3.38;;;;;;;;;;5020474;28;20021;-60
2023/06/13 02:18:11;;;;;;;7.75;3.83;;;;;;;;;;5027089;28;20017;-60
2023/06/13 02:20:36;;;;;;;6.07;3.30;;;;;;;;;;5017097;28;20107;-60
2023/06/13 02:23:02;;;;;;;6.13;3.38;;;;;;;;;;5017046;28;20026;-60
2023/06/13 02:25:27;;;;;;;7.10;3.20;;;;;;;;;;5027416;28;20155;-59
2023/06/13 02:27:52;;;;;;;8.93;3.47;;;;;;;;;;5022506;28;20017;-58
2023/06/13 02:30:18;;;;;;;9.97;3.60;;;;;;;;;;5017922;28;20033;-59
2023/06/13 02:32:43;;;;;;;6.33;3.23;;;;;;;;;;5019027;28;20083;-59
2023/06/13 02:35:09;;;;;;;7.57;3.33;;;;;;;;;;5027337;28;20052;-60
2023/06/13 02:37:34;;;;;;;7.28;3.92;;;;;;;;;;5023094;28;20548;-60
2023/06/13 02:39:59;;;;;;;6.07;3.50;;;;;;;;;;5020640;28;20029;-59
2023/06/13 02:42:26;;;;;;;7.70;3.30;;;;;;;;;;5024979;28;20467;-60
2023/06/13 02:44:51;;;;;;;6.97;3.15;;;;;;;;;;5021788;28;20087;-60
2023/06/13 02:47:19;;;;;;;6.95;3.30;;;;;;;;;;5025069;28;20033;-60
2023/06/13 02:49:44;;;;;;;7.50;3.38;;;;;;;;;;5030725;28;20025;-60
2023/06/13 02:52:09;;;;;;;6.37;2.90;;;;;;;;;;5027574;28;20089;-60
2023/06/13 02:54:34;;;;;;;6.97;3.10;;;;;;;;;;5023401;28;20091;-60
2023/06/13 02:56:59;;;;;;;6.25;3.35;;;;;;;;;;5013133;28;20028;-59
2023/06/13 02:59:26;;;;;;;6.63;3.20;;;;;;;;;;5023091;28;20028;-60
2023/06/13 03:01:51;;;;;;;6.32;3.10;;;;;;;;;;5023433;28;20049;-60
2023/06/13 03:04:18;;;;;;;6.70;3.05;;;;;;;;;;5030516;28;20410;-60
2023/06/13 03:06:44;;;;;;;6.68;2.97;;;;;;;;;;5026563;28;20389;-60
2023/06/13 03:09:10;;;;;;;6.63;3.63;;;;;;;;;;5019381;28;20026;-60
2023/06/13 03:11:35;;;;;;;6.88;3.45;;;;;;;;;;5028321;28;20437;-60
2023/06/13 03:14:00;;;;;;;7.90;3.10;;;;;;;;;;5015252;28;20021;-64
2023/06/13 03:16:27;;;;;;;6.70;3.33;;;;;;;;;;5019655;28;20068;-64
2023/06/13 03:18:52;;;;;;;6.72;3.05;;;;;;;;;;5023285;28;20033;-64
2023/06/13 03:21:18;;;;;;;7.47;3.40;;;;;;;;;;5018131;28;20021;-64
2023/06/13 03:23:43;;;;;;;6.50;3.28;;;;;;;;;;5024831;28;20630;-63
2023/06/13 03:26:09;;;;;;;7.65;3.30;;;;;;;;;;5025798;28;20048;-63
2023/06/13 03:28:34;;;;;;;6.90;3.15;;;;;;;;;;5023689;28;20033;-64
2023/06/13 03:31:00;;;;;;;6.73;3.67;;;;;;;;;;5024542;28;20020;-64
2023/06/13 03:33:25;;;;;;;6.53;3.50;;;;;;;;;;5022440;28;20025;-64
2023/06/13 03:35:52;;;;;;;6.93;3.70;;;;;;;;;;5029439;28;20039;-64
2023/06/13 03:38:17;;;;;;;6.50;3.22;;;;;;;;;;5020613;28;20034;-64
2023/06/13 03:40:42;;;;;;;7.65;3.25;;;;;;;;;;5025117;28;20026;-64
2023/06/13 03:43:08;;;;;;;6.22;3.58;;;;;;;;;;5028073;28;20489;-64
2023/06/13 03:45:33;;;;;;;7.37;3.53;;;;;;;;;;5021430;28;20025;-64
2023/06/13 03:47:58;;;;;;;7.80;3.60;;;;;;;;;;5018880;28;20033;-64
2023/06/13 03:50:23;;;;;;;7.70;4.10;;;;;;;;;;5010334;28;20018;-63
2023/06/13 03:52:48;;;;;;;7.88;4.30;;;;;;;;;;5017102;28;20029;-64
2023/06/13 03:55:13;;;;;;;9.90;4.10;;;;;;;;;;5012157;28;20099;-64
2023/06/13 03:57:39;;;;;;;7.70;3.97;;;;;;;;;;5010571;28;20037;-64
2023/06/13 04:00:05;;;;;;;7.70;4.00;;;;;;;;;;5031319;28;20100;-64
2023/06/13 04:02:30;;;;;;;7.30;3.90;;;;;;;;;;5013688;28;20097;-64
2023/06/13 04:04:56;;;;;;;8.88;4.15;;;;;;;;;;5015959;28;20500;-63
2023/06/13 04:07:21;;;;;;;9.20;4.13;;;;;;;;;;5018991;28;20036;-64
2023/06/13 04:09:47;;;;;;;8.67;4.00;;;;;;;;;;5014339;28;20113;-64
2023/06/13 04:12:12;;;;;;;7.63;3.70;;;;;;;;;;5014223;28;20020;-64
2023/06/13 04:14:37;;;;;;;8.43;3.50;;;;;;;;;;5024449;28;20010;-64
2023/06/13 04:17:03;;;;;;;7.80;3.63;;;;;;;;;;5032340;28;20024;-64
2023/06/13 04:19:29;;;;;;;7.25;3.20;;;;;;;;;;5032191;28;20091;-64
2023/06/13 04:21:55;;;;;;;6.38;3.22;;;;;;;;;;5022635;28;20028;-63
2023/06/13 04:24:21;;;;;;;8.50;3.70;;;;;;;;;;5029875;28;20088;-63
2023/06/13 04:26:46;;;;;;;6.47;3.50;;;;;;;;;;5020927;28;20017;-64
2023/06/13 04:29:13;;;;;;;7.17;3.23;;;;;;;;;;5020742;28;20087;-63
2023/06/13 04:31:38;;;;;;;6.10;3.28;;;;;;;;;;5020218;28;20021;-64
2023/06/13 04:34:03;;;;;;;7.97;3.20;;;;;;;;;;5014441;28;20032;-64
2023/06/13 04:36:32;;;;;;;7.80;3.53;;;;;;;;;;5018174;28;20018;-64
2023/06/13 04:39:01;;;;;;;8.45;3.78;;;;;;;;;;5026070;28;20035;-64
2023/06/13 04:41:26;;;;;;;9.57;3.90;;;;;;;;;;5029900;28;20025;-64
2023/06/13 04:43:53;;;;;;;7.90;3.58;;;;;;;;;;5024833;28;20116;-63
2023/06/13 04:46:18;;;;;;;7.53;3.60;;;;;;;;;;5020113;28;20470;-63
2023/06/13 04:48:43;;;;;;;10.53;3.60;;;;;;;;;;5021176;28;20083;-63
2023/06/13 04:51:09;;;;;;;7.47;3.10;;;;;;;;;;5036649;28;20024;-63
2023/06/13 04:53:34;;;;;;;10.07;4.05;;;;;;;;;;5016918;28;20460;-63
2023/06/13 04:55:59;;;;;;;6.37;3.37;;;;;;;;;;5013915;28;20025;-63
2023/06/13 04:58:24;;;;;;;7.70;3.37;;;;;;;;;;5010355;28;20025;-63
2023/06/13 05:00:50;;;;;;;7.67;3.60;;;;;;;;;;5009141;28;20103;-63
2023/06/13 05:03:16;;;;;;;8.15;3.50;;;;;;;;;;5029559;28;20037;-63
2023/06/13 05:05:42;;;;;;;8.13;3.63;;;;;;;;;;5031490;28;20025;-63
2023/06/13 05:08:08;;;;;;;6.38;3.60;;;;;;;;;;5030967;28;20506;-63
2023/06/13 05:10:33;;;;;;;6.80;3.30;;;;;;;;;;5028567;28;20028;-62
2023/06/13 05:12:59;;;;;;;6.37;3.10;;;;;;;;;;5030355;28;20013;-63
2023/06/13 05:15:24;;;;;;;6.63;3.60;;;;;;;;;;5020171;28;20758;-62
2023/06/13 05:17:54;;;;;;;7.10;3.57;;;;;;;;;;5012431;28;20037;-61
2023/06/13 05:20:22;;;;;;;9.10;3.58;;;;;;;;;;5021096;28;20018;-61
2023/06/13 05:22:47;;;;;;;6.70;3.42;;;;;;;;;;5024367;28;20041;-61
2023/06/13 05:25:12;;;;;;;8.27;3.87;;;;;;;;;;5019831;28;20392;-61
2023/06/13 05:27:38;;;;;;;8.40;3.55;;;;;;;;;;5020128;28;20484;-61
2023/06/13 05:30:05;;;;;;;8.70;3.53;;;;;;;;;;5027139;28;20498;-60
2023/06/13 05:32:30;;;;;;;7.43;3.47;;;;;;;;;;5022870;28;20502;-62
2023/06/13 05:34:56;;;;;;;6.13;3.28;;;;;;;;;;5033379;28;20025;-60
2023/06/13 05:37:21;;;;;;;7.65;3.40;;;;;;;;;;5033088;28;20479;-61
2023/06/13 05:39:46;;;;;;;7.33;3.43;;;;;;;;;;5032797;28;20033;-61
2023/06/13 05:42:11;;;;;;;7.15;3.60;;;;;;;;;;5028320;28;20017;-61
2023/06/13 05:44:37;;;;;;;9.63;3.50;;;;;;;;;;5032718;28;20045;-61
2023/06/13 05:47:02;;;;;;;7.90;3.47;;;;;;;;;;5031623;28;20032;-61
2023/06/13 05:49:27;;;;;;;7.50;3.40;;;;;;;;;;5021412;28;20021;-62
2023/06/13 05:51:53;;;;;;;6.82;3.22;;;;;;;;;;5028639;28;20033;-62
2023/06/13 05:54:18;;;;;;;7.33;3.43;;;;;;;;;;5022854;28;20420;-62
2023/06/13 05:56:43;;;;;;;8.38;3.35;;;;;;;;;;5032369;28;20021;-61
2023/06/13 05:59:09;;;;;;;6.93;3.40;;;;;;;;;;5032232;28;20017;-62
2023/06/13 06:01:35;;;;;;;10.05;3.50;;;;;;;;;;5031026;28;20021;-62
2023/06/13 06:04:00;;;;;;;8.85;3.97;;;;;;;;;;5029189;28;20026;-62
2023/06/13 06:06:25;;;;;;;9.38;3.88;;;;;;;;;;5018744;28;20072;-61
2023/06/13 06:08:50;;;;;;;7.13;3.53;;;;;;;;;;5031499;28;20032;-62
2023/06/13 06:11:15;;;;;;;12.43;4.13;;;;;;;;;;5025537;28;20068;-62
2023/06/13 06:13:40;;;;;;;9.13;3.87;;;;;;;;;;5041427;28;20071;-61
2023/06/13 06:16:06;;;;;;;10.85;3.38;;;;;;;;;;5026426;28;20029;-61
2023/06/13 06:18:31;;;;;;;7.87;3.50;;;;;;;;;;5042032;28;20053;-61
2023/06/13 06:20:56;;;;;;;9.10;3.50;;;;;;;;;;5023506;28;20018;-61
2023/06/13 06:23:21;;;;;;;7.40;3.20;;;;;;;;;;5030764;28;20559;-60
2023/06/13 06:25:47;;;;;;;8.43;3.15;;;;;;;;;;5032048;28;20074;-61
2023/06/13 06:28:12;;;;;;;6.90;3.50;;;;;;;;;;5026025;28;20358;-61
2023/06/13 06:30:37;;;;;;;6.85;3.53;;;;;;;;;;5022308;28;20057;-60
2023/06/13 06:33:02;;;;;;;5.88;3.20;;;;;;;;;;5024042;28;20032;-61
2023/06/13 06:35:27;;;;;;;9.97;3.93;;;;;;;;;;5034129;28;20374;-60
2023/06/13 06:37:52;;;;;;;7.68;3.70;;;;;;;;;;5036742;28;20044;-61
2023/06/13 06:40:18;;;;;;;7.55;3.33;;;;;;;;;;5040790;28;20017;-60
2023/06/13 06:42:43;;;;;;;7.10;3.38;;;;;;;;;;5029790;28;20477;-61
2023/06/13 06:45:12;;;;;;;8.48;3.53;;;;;;;;;;5030293;28;20028;-61
2023/06/13 06:47:37;;;;;;;6.70;3.17;;;;;;;;;;5034568;28;20024;-61
2023/06/13 06:50:02;;;;;;;7.40;3.70;;;;;;;;;;5037222;28;20026;-60
2023/06/13 06:52:28;;;;;;;5.43;2.87;;;;;;;;;;5030341;28;20022;-61
2023/06/13 06:54:53;;;;;;;7.07;2.97;;;;;;;;;;5031331;28;20048;-60
2023/06/13 06:57:18;;;;;;;8.83;3.20;;;;;;;;;;5027213;28;20026;-60
2023/06/13 06:59:44;;;;;;;5.73;3.17;;;;;;;;;;5038185;28;20098;-61
2023/06/13 07:02:09;;;;;;;8.88;3.17;;;;;;;;;;5030052;28;20013;-60
2023/06/13 07:04:34;;;;;;;6.35;3.25;;;;;;;;;;5024190;28;20048;-60
2023/06/13 07:07:00;;;;;;;7.15;3.00;;;;;;;;;;5031155;28;20021;-61
2023/06/13 07:09:25;;;;;;;5.85;3.10;;;;;;;;;;5030727;28;20028;-61
2023/06/13 07:11:53;;;;;;;7.22;3.38;;;;;;;;;;5029310;28;20033;-61
2023/06/13 07:14:18;;;;;;;9.50;3.50;;;;;;;;;;5027726;28;20014;-60
2023/06/13 07:16:44;;;;;;;11.20;3.28;;;;;;;;;;5026643;28;20101;-61
2023/06/13 07:19:09;;;;;;;7.30;3.22;;;;;;;;;;5030807;28;20033;-61
2023/06/13 07:21:34;;;;;;;8.73;3.25;;;;;;;;;;5031578;28;20029;-61
2023/06/13 07:24:00;;;;;;;11.33;3.37;;;;;;;;;;5023658;28;20025;-60
2023/06/13 07:26:26;;;;;;;9.10;3.00;;;;;;;;;;5031085;28;20017;-60
2023/06/13 07:28:52;;;;;;;11.40;2.90;;;;;;;;;;5023495;28;21050;-61
2023/06/13 07:31:17;;;;;;;8.20;3.43;;;;;;;;;;5025650;28;20028;-61
2023/06/13 07:33:42;;;;;;;8.30;3.13;;;;;;;;;;5030573;28;20026;-61
2023/06/13 07:36:08;;;;;;;10.27;2.92;;;;;;;;;;5031032;28;20109;-60
2023/06/13 07:38:33;;;;;;;9.27;2.70;;;;;;;;;;5028740;28;20021;-61
2023/06/13 07:40:58;;;;;;;8.45;3.05;;;;;;;;;;5030259;28;20022;-60
2023/06/13 07:43:23;;;;;;;6.83;2.80;;;;;;;;;;5014985;28;20522;-61
2023/06/13 07:45:48;;;;;;;5.37;3.03;;;;;;;;;;5029830;28;20021;-61
2023/06/13 07:48:13;;;;;;;9.80;3.40;;;;;;;;;;5030902;28;20029;-61
2023/06/13 07:50:41;;;;;;;9.90;3.40;;;;;;;;;;5025636;28;20432;-60
2023/06/13 07:53:07;;;;;;;5.45;2.80;;;;;;;;;;5029305;28;20045;-61
2023/06/13 07:55:32;;;;;;;8.13;2.95;;;;;;;;;;5030748;28;20432;-60
2023/06/13 07:57:57;;;;;;;6.67;2.80;;;;;;;;;;5030578;28;20013;-61
2023/06/13 08:00:23;;;;;;;7.82;3.08;;;;;;;;;;5030267;28;20097;-61
2023/06/13 08:02:48;;;;;;;11.07;3.03;;;;;;;;;;5023664;28;20436;-61
2023/06/13 08:05:14;;;;;;;6.43;2.85;;;;;;;;;;5024877;28;20393;-60
2023/06/13 08:07:39;;;;;;;6.70;2.92;;;;;;;;;;5029592;28;20544;-61
2023/06/13 08:10:04;;;;;;;9.93;2.90;;;;;;;;;;5028482;28;20029;-61
2023/06/13 08:12:30;;;;;;;7.43;3.10;;;;;;;;;;5029293;28;20034;-61
2023/06/13 08:14:55;;;;;;;5.57;2.33;;;;;;;;;;5021723;28;20477;-61
2023/06/13 08:17:20;;;;;;;5.35;2.78;;;;;;;;;;5030281;28;20028;-61
2023/06/13 08:19:50;;;;;;;7.83;2.67;;;;;;;;;;5026628;28;20045;-62
2023/06/13 08:22:15;;;;;;;7.05;2.83;;;;;;;;;;5010582;28;20796;-61
2023/06/13 08:24:40;;;;;;;6.45;2.60;;;;;;;;;;5021315;28;20018;-61
2023/06/13 08:27:07;;;;;;;5.30;2.67;;;;;;;;;;5022649;28;20028;-61
2023/06/13 08:29:32;;;;;;;7.70;2.45;;;;;;;;;;5029739;28;20082;-60
2023/06/13 08:31:58;;;;;;;12.65;2.53;;;;;;;;;;5030542;28;20100;-61
2023/06/13 08:34:23;;;;;;;8.40;2.80;;;;;;;;;;5029744;28;20021;-62
2023/06/13 08:36:48;;;;;;;7.47;2.90;;;;;;;;;;5028564;28;20025;-61
2023/06/13 08:39:14;;;;;;;7.60;2.80;;;;;;;;;;5029658;28;20018;-61
2023/06/13 08:41:40;;;;;;;7.80;2.75;;;;;;;;;;5023578;28;20294;-61
2023/06/13 08:44:06;;;;;;;9.18;2.70;;;;;;;;;;5024797;28;20018;-61
2023/06/13 08:46:32;;;;;;;7.15;2.60;;;;;;;;;;5030123;28;20060;-61
2023/06/13 08:48:57;;;;;;;7.20;2.38;;;;;;;;;;5027766;28;20167;-61
2023/06/13 08:51:23;;;;;;;6.10;2.50;;;;;;;;;;5031917;28;20541;-61
2023/06/13 08:53:49;;;;;;;;;;;;;;;;;;5026445;28;20551;-61
2023/06/13 08:56:14;;;;;;;4.93;2.50;;;;;;;;;;5033436;28;19992;-62
2023/06/13 08:58:41;;;;;;;5.63;2.47;;;;;;;;;;5031572;28;20105;-62
2023/06/13 09:01:07;;;;;;;6.10;2.70;;;;;;;;;;5033055;28;20027;-62
2023/06/13 09:03:32;;;;;;;7.57;2.60;;;;;;;;;;5033617;28;20096;-61
2023/06/13 09:05:58;;;;;;;7.20;2.78;;;;;;;;;;5033489;28;20535;-62
2023/06/13 09:08:24;;;;;;;8.55;2.38;;;;;;;;;;5031202;28;20022;-61
2023/06/13 09:10:49;;;;;;;6.45;2.65;;;;;;;;;;5032811;28;20044;-61
2023/06/13 09:13:15;;;;;;;;;;;;;;;;;;5033864;28;20021;-61
2023/06/13 09:15:42;;;;;;;6.38;2.80;;;;;;;;;;5033235;28;19912;-62
2023/06/13 09:18:07;;;;;;;6.50;2.90;;;;;;;;;;5033626;28;20018;-61
2023/06/13 09:20:32;;;;;;;6.50;2.60;;;;;;;;;;5025144;28;20477;-62
2023/06/13 09:22:57;;;;;;;;;;;;;;;;;;5033751;28;20025;-61
2023/06/13 09:25:24;;;;;;;10.48;3.08;;;;;;;;;;5033113;28;19912;-61
2023/06/13 09:27:49;;;;;;;5.70;2.80;;;;;;;;;;5034065;28;20108;-61
2023/06/13 09:30:15;;;;;;;9.63;3.03;;;;;;;;;;5021243;28;20022;-61
2023/06/13 09:32:40;;;;;;;;;;;;;;;;;;5025779;28;20017;-61
2023/06/13 09:35:05;;;;;;;6.45;2.60;;;;;;;;;;5033290;28;19975;-61
2023/06/13 09:37:30;;;;;;;;;;;;;;;;;;5033919;28;20032;-59
2023/06/13 09:40:01;;;;;;;8.68;2.80;;;;;;;;;;5023628;28;19909;-61
2023/06/13 09:42:26;;;;;;;6.88;2.85;;;;;;;;;;5032389;28;20418;-61
2023/06/13 09:44:52;;;;;;;6.40;2.53;;;;;;;;;;5033186;28;20041;-60
2023/06/13 09:47:17;;;;;;;;;;;;;;;;;;5029220;28;20689;-61
2023/06/13 09:49:44;;;;;;;6.47;2.70;;;;;;;;;;5031064;28;19916;-61
2023/06/13 09:52:11;;;;;;;6.13;3.00;;;;;;;;;;5032629;28;20021;-61
2023/06/13 09:54:37;;;;;;;5.28;2.78;;;;;;;;;;5032732;28;20059;-61
2023/06/13 09:57:03;;;;;;;7.95;2.78;;;;;;;;;;5032910;28;20013;-59
2023/06/13 09:59:28;;;;;;;5.90;2.50;;;;;;;;;;5029604;28;20537;-59
2023/06/13 10:01:53;;;;;;;7.57;2.40;;;;;;;;;;5032400;28;20018;-62
2023/06/13 10:04:21;;;;;;;6.20;2.67;;;;;;;;;;5027737;28;20049;-59
2023/06/13 10:06:46;;;;;;;7.65;2.65;;;;;;;;;;5032420;28;20080;-60
2023/06/13 10:09:12;;;;;;;4.82;2.33;;;;;;;;;;5031939;28;20097;-60
2023/06/13 10:11:39;;;;;;;9.18;2.50;;;;;;;;;;5032305;28;20018;-60
2023/06/13 10:14:09;;;;;;;6.15;2.53;;;;;;;;;;5031147;28;20026;-60
2023/06/13 10:16:37;;;;;;;4.88;2.55;;;;;;;;;;5027626;28;20032;-59
2023/06/13 10:19:04;;;;;;;6.65;2.45;;;;;;;;;;5031632;28;20032;-60
2023/06/13 10:21:29;;;;;;;5.13;2.20;;;;;;;;;;5032119;28;20071;-60
2023/06/13 10:23:56;;;;;;;6.17;2.23;;;;;;;;;;5032188;28;20021;-60
2023/06/13 10:26:35;;;;;;;6.63;2.30;;;;;;;;;;5023372;28;20026;-60
2023/06/13 10:29:08;;;;;;;5.35;2.40;;;;;;;;;;5031744;28;20018;-60
2023/06/13 10:31:36;;;;;;;6.18;2.65;;;;;;;;;;5022383;28;20032;-60
2023/06/13 10:34:05;;;;;;;5.38;2.67;;;;;;;;;;5031825;28;20018;-60
2023/06/13 10:36:41;;;;;;;7.63;2.65;;;;;;;;;;5031840;28;20029;-60
2023/06/13 10:39:10;;;;;;;5.68;2.55;;;;;;;;;;5026718;28;20029;-60
2023/06/13 10:41:57;;;;;;;4.53;2.40;;;;;;;;;;5030286;28;20478;-60
2023/06/13 10:44:40;;;;;;;5.47;2.42;;;;;;;;;;5023660;28;20069;-61
2023/06/13 10:47:06;;;;;;;7.03;2.80;;;;;;;;;;5011808;28;20033;-60
2023/06/13 10:49:42;;;;;;;6.75;2.47;;;;;;;;;;5011338;28;20411;-60
2023/06/13 10:52:13;;;;;;;4.22;2.28;;;;;;;;;;5012091;28;20056;-60
2023/06/13 10:54:40;;;;;;;6.10;2.65;;;;;;;;;;5028885;28;20115;-61
2023/06/13 10:57:05;;;;;;;7.10;2.63;;;;;;;;;;5028000;28;20025;-60
2023/06/13 10:59:36;;;;;;;7.50;2.70;;;;;;;;;;5030944;28;20017;-60
2023/06/13 11:02:01;;;;;;;6.88;2.75;;;;;;;;;;5026555;28;20045;-60
2023/06/13 11:04:28;;;;;;;7.40;2.55;;;;;;;;;;5030300;28;20107;-60
2023/06/13 11:06:53;;;;;;;;;;;;;;;;;;5031775;28;20497;-60
2023/06/13 11:09:18;;;;;;;5.88;2.60;;;;;;;;;;5030811;28;20368;-61
2023/06/13 11:11:46;;;;;;;8.50;2.65;;;;;;;;;;5024121;28;20022;-61
2023/06/13 11:14:11;;;;;;;7.25;2.55;;;;;;;;;;5021979;28;20013;-61
2023/06/13 11:16:38;;;;;;;11.05;2.92;;;;;;;;;;5030795;28;20018;-61
2023/06/13 11:19:12;;;;;;;6.97;2.83;;;;;;;;;;5030733;28;20036;-61
2023/06/13 11:21:45;;;;;;;7.88;3.17;;;;;;;;;;5026594;28;20055;-61
2023/06/13 11:24:11;;;;;;;5.97;3.00;;;;;;;;;;5029224;28;20017;-61
2023/06/13 11:26:36;;;;;;;7.05;3.00;;;;;;;;;;5025720;28;20021;-61
2023/06/13 11:29:03;;;;;;;6.17;3.00;;;;;;;;;;5030487;28;20376;-61
2023/06/13 11:31:28;;;;;;;8.32;3.20;;;;;;;;;;5020793;28;20080;-60
2023/06/13 11:33:56;;;;;;;9.47;3.00;;;;;;;;;;5030720;28;20022;-61
2023/06/13 11:36:24;;;;;;;6.70;3.10;;;;;;;;;;5031833;28;20473;-61
2023/06/13 11:38:54;;;;;;;8.45;2.90;;;;;;;;;;5029209;28;20025;-61
2023/06/13 11:41:19;;;;;;;5.53;2.60;;;;;;;;;;5031066;28;20029;-61
2023/06/13 11:43:44;;;;;;;10.10;2.80;;;;;;;;;;5019906;28;20029;-60
2023/06/13 11:46:11;;;;;;;6.30;3.13;;;;;;;;;;5010617;28;20563;-61
2023/06/13 11:48:37;;;;;;;7.10;2.88;;;;;;;;;;5021036;28;20021;-61
2023/06/13 11:51:11;;;;;;;6.68;3.05;;;;;;;;;;5030162;28;20428;-61
2023/06/13 11:53:49;;;;;;;6.38;3.13;;;;;;;;;;5030946;28;20603;-61
2023/06/13 11:56:15;;;;;;;7.50;2.78;;;;;;;;;;5030637;28;20013;-60
2023/06/13 11:58:40;;;;;;;5.65;2.80;;;;;;;;;;5022510;28;20021;-60
2023/06/13 12:01:05;;;;;;;7.80;2.83;;;;;;;;;;5030173;28;20021;-61
2023/06/13 12:03:33;;;;;;;7.20;3.25;;;;;;;;;;5030692;28;20411;-61
2023/06/13 12:05:58;;;;;;;5.35;2.70;;;;;;;;;;5030633;28;20030;-61
2023/06/13 12:08:23;;;;;;;6.70;3.10;;;;;;;;;;5026679;28;20021;-61
2023/06/13 12:10:49;;;;;;;5.45;2.83;;;;;;;;;;5030161;28;20454;-61
2023/06/13 12:13:17;;;;;;;6.80;2.57;;;;;;;;;;5030537;28;20032;-60
2023/06/13 12:15:42;;;;;;;5.43;2.83;;;;;;;;;;5030455;28;20032;-61
2023/06/13 12:18:08;;;;;;;6.70;2.83;;;;;;;;;;5026121;28;20017;-61
2023/06/13 12:20:45;;;;;;;8.10;2.90;;;;;;;;;;5027084;28;20102;-61
2023/06/13 12:23:10;;;;;;;7.05;2.85;;;;;;;;;;5010717;28;20018;-61
2023/06/13 12:25:36;;;;;;;7.47;2.60;;;;;;;;;;5013087;28;20068;-61
2023/06/13 12:28:01;;;;;;;7.90;2.83;;;;;;;;;;5014302;28;20406;-61
2023/06/13 12:30:26;;;;;;;8.50;3.10;;;;;;;;;;5031375;28;20021;-61
2023/06/13 12:32:56;;;;;;;6.07;2.55;;;;;;;;;;5034507;28;20354;-60
2023/06/13 12:35:23;;;;;;;6.22;2.97;;;;;;;;;;5029607;28;20032;-61
2023/06/13 12:37:55;;;;;;;7.28;2.78;;;;;;;;;;5028270;28;20075;-61
2023/06/13 12:40:24;;;;;;;7.30;2.95;;;;;;;;;;5031042;28;20018;-61
2023/06/13 12:42:50;;;;;;;6.15;2.83;;;;;;;;;;5034309;28;20056;-61
2023/06/13 12:45:15;;;;;;;7.03;2.67;;;;;;;;;;5033988;28;20456;-61
2023/06/13 12:47:40;;;;;;;4.93;2.63;;;;;;;;;;5032426;28;20025;-61
2023/06/13 12:50:06;;;;;;;6.00;2.50;;;;;;;;;;5023885;28;20472;-61
2023/06/13 12:52:31;;;;;;;;;;;;;;;;;;5034232;28;20075;-61
2023/06/13 12:54:59;;;;;;;7.18;2.90;;;;;;;;;;5034031;28;19913;-61
2023/06/13 12:57:25;;;;;;;6.30;2.80;;;;;;;;;;5033737;28;20100;-60
2023/06/13 12:59:52;;;;;;;6.65;2.50;;;;;;;;;;5032399;28;20025;-61
2023/06/13 13:02:19;;;;;;;6.28;2.85;;;;;;;;;;5031350;28;20018;-62
2023/06/13 13:04:45;;;;;;;6.90;3.00;;;;;;;;;;5025650;28;20414;-60
2023/06/13 13:07:15;;;;;;;8.05;2.85;;;;;;;;;;5034073;28;20028;-62
2023/06/13 13:09:41;;;;;;;5.10;2.78;;;;;;;;;;5025066;28;20025;-61
2023/06/13 13:12:06;;;;;;;;;;;;;;;;;;5033599;28;20511;-62
2023/06/13 13:14:32;;;;;;;5.90;2.78;;;;;;;;;;5033451;28;20388;-62
2023/06/13 13:16:57;;;;;;;6.07;2.80;;;;;;;;;;5028096;28;20017;-62
2023/06/13 13:19:22;;;;;;;6.53;2.57;;;;;;;;;;5041673;28;20036;-62
2023/06/13 13:21:48;;;;;;;7.43;2.92;;;;;;;;;;5029850;28;20018;-62
2023/06/13 13:24:13;;;;;;;6.43;2.50;;;;;;;;;;5029155;28;20033;-62
2023/06/13 13:26:40;;;;;;;8.88;2.80;;;;;;;;;;5033614;28;20021;-62
2023/06/13 13:29:05;;;;;;;5.35;2.70;;;;;;;;;;5039014;28;20010;-61
2023/06/13 13:31:30;;;;;;;5.20;2.55;;;;;;;;;;5027021;28;20021;-61
2023/06/13 13:33:55;;;;;;;5.40;2.50;;;;;;;;;;5030867;28;20013;-62
2023/06/13 13:36:21;;;;;;;7.50;2.50;;;;;;;;;;5032576;28;20428;-61
2023/06/13 13:38:47;;;;;;;7.53;3.20;;;;;;;;;;5033078;28;20508;-61
2023/06/13 13:41:12;;;;;;;5.47;2.55;;;;;;;;;;5032712;28;20477;-61
2023/06/13 13:43:37;;;;;;;6.05;2.75;;;;;;;;;;5025460;28;20028;-61
2023/06/13 13:46:02;;;;;;;6.88;2.92;;;;;;;;;;5025940;28;20371;-61
2023/06/13 13:48:27;;;;;;;7.60;2.58;;;;;;;;;;5030706;28;20018;-61
2023/06/13 13:50:53;;;;;;;6.35;2.35;;;;;;;;;;5025431;28;20076;-61
2023/06/13 13:53:18;;;;;;;6.13;2.60;;;;;;;;;;5026674;28;20449;-62
2023/06/13 13:55:43;;;;;;;5.30;2.63;;;;;;;;;;5025305;28;20013;-61
2023/06/13 13:58:09;;;;;;;6.88;2.80;;;;;;;;;;5033109;28;20479;-61
2023/06/13 14:00:35;;;;;;;5.40;2.80;;;;;;;;;;5033670;28;20033;-60
2023/06/13 14:03:00;;;;;;;6.22;2.75;;;;;;;;;;5039108;28;20021;-59
2023/06/13 14:05:25;;;;;;;6.72;2.60;;;;;;;;;;5025390;28;20018;-61
2023/06/13 14:07:50;;;;;;;7.57;2.83;;;;;;;;;;5032331;28;20017;-61
2023/06/13 14:10:15;;;;;;;6.70;2.83;;;;;;;;;;5031804;28;20113;-62
2023/06/13 14:12:40;;;;;;;5.97;2.97;;;;;;;;;;5026316;28;20830;-62
2023/06/13 14:15:06;;;;;;;7.10;2.80;;;;;;;;;;5032314;28;20052;-63
2023/06/13 14:17:31;;;;;;;9.65;2.80;;;;;;;;;;5023973;28;20106;-60
2023/06/13 14:19:56;;;;;;;7.35;3.10;;;;;;;;;;5024246;28;20053;-61
2023/06/13 14:22:21;;;;;;;10.77;2.87;;;;;;;;;;5028599;28;24629;-61
2023/06/13 14:24:46;;;;;;;5.93;2.37;;;;;;;;;;5032112;28;20029;-60
2023/06/13 14:27:11;;;;;;;7.07;2.90;;;;;;;;;;5032089;28;20217;-60
2023/06/13 14:29:37;;;;;;;7.78;2.78;;;;;;;;;;5031437;28;20486;-61
2023/06/13 14:32:02;;;;;;;7.17;2.57;;;;;;;;;;5032010;28;20026;-61
2023/06/13 14:34:28;;;;;;;5.95;3.00;;;;;;;;;;5030833;28;20013;-61
2023/06/13 14:36:54;;;;;;;8.50;3.13;;;;;;;;;;5029831;28;20018;-61
2023/06/13 14:39:19;;;;;;;7.88;2.88;;;;;;;;;;5031651;28;20024;-61
2023/06/13 14:41:46;;;;;;;7.00;2.80;;;;;;;;;;5031718;28;20029;-60
2023/06/13 14:44:11;;;;;;;12.30;3.20;;;;;;;;;;5029747;28;20498;-60
2023/06/13 14:46:36;;;;;;;8.57;3.10;;;;;;;;;;5031931;28;20018;-60
2023/06/13 14:49:01;;;;;;;11.23;3.40;;;;;;;;;;5025682;28;20096;-62
2023/06/13 14:51:26;;;;;;;10.48;3.20;;;;;;;;;;5024830;28;20018;-60
2023/06/13 14:53:51;;;;;;;5.90;3.08;;;;;;;;;;5029008;28;20087;-61
2023/06/13 14:56:16;;;;;;;8.23;3.30;;;;;;;;;;5020871;28;20537;-61
2023/06/13 14:58:42;;;;;;;10.83;3.60;;;;;;;;;;5031091;28;20040;-60
2023/06/13 15:01:07;;;;;;;6.93;3.37;;;;;;;;;;5031194;28;20381;-60
2023/06/13 15:03:37;;;;;;;6.17;3.03;;;;;;;;;;5031465;28;20040;-60
2023/06/13 15:06:02;;;;;;;11.68;3.88;;;;;;;;;;5021589;28;20030;-62
2023/06/13 15:08:27;;;;;;;6.33;3.10;;;;;;;;;;5030881;28;20063;-61
2023/06/13 15:10:52;;;;;;;6.28;3.05;;;;;;;;;;5030818;28;20385;-61
2023/06/13 15:13:20;;;;;;;10.60;3.35;;;;;;;;;;5031319;28;20549;-61
2023/06/13 15:15:52;;;;;;;8.45;3.40;;;;;;;;;;5024296;28;20493;-61
2023/06/13 15:18:17;;;;;;;9.82;3.22;;;;;;;;;;5024093;28;20025;-61
2023/06/13 15:20:42;;;;;;;10.52;3.33;;;;;;;;;;5030765;28;20615;-62
2023/06/13 15:23:07;;;;;;;8.50;3.20;;;;;;;;;;5031148;28;20029;-61
2023/06/13 15:25:33;;;;;;;7.97;3.50;;;;;;;;;;5027341;28;20095;-61
2023/06/13 15:27:58;;;;;;;9.17;3.37;;;;;;;;;;5030739;28;20444;-61
2023/06/13 15:30:23;;;;;;;7.72;3.38;;;;;;;;;;5029954;28;20545;-62
2023/06/13 15:32:48;;;;;;;9.10;3.35;;;;;;;;;;5031591;28;20026;-62
2023/06/13 15:35:13;;;;;;;8.13;3.60;;;;;;;;;;5027115;28;20045;-61
2023/06/13 15:37:39;;;;;;;9.07;3.40;;;;;;;;;;5030425;28;20027;-61
2023/06/13 15:40:04;;;;;;;8.00;3.40;;;;;;;;;;5030382;28;20040;-61
2023/06/13 15:42:29;;;;;;;8.43;3.38;;;;;;;;;;5030764;28;20063;-61